createdAt,value
2019-04-05T00:00:40.753Z,98.27
2019-04-05T00:01:40.737Z,98.16
2019-04-05T00:02:40.721Z,98.32
2019-04-05T00:03:40.719Z,98.11
2019-04-05T00:04:40.749Z,98.43
2019-04-05T00:05:40.694Z,98.53
2019-04-05T00:06:40.722Z,98.69
2019-04-05T00:07:40.672Z,98.38
2019-04-05T00:08:40.692Z,98.58
2019-04-05T00:09:40.643Z,98.69
2019-04-05T00:10:40.666Z,98.38
2019-04-05T00:11:40.650Z,98.32
2019-04-05T00:12:40.614Z,98.11
2019-04-05T00:13:40.605Z,98.53
2019-04-05T00:14:40.594Z,97.91
2019-04-05T00:15:40.590Z,98.53
2019-04-05T00:16:40.579Z,97.71
2019-04-05T00:17:40.563Z,98.18
2019-04-05T00:18:40.587Z,98.11
2019-04-05T00:19:40.568Z,98.18
2019-04-05T00:20:40.530Z,97.66
2019-04-05T00:21:40.520Z,97.76
2019-04-05T00:22:40.507Z,97.66
2019-04-05T00:23:40.531Z,97.76
2019-04-05T00:24:40.524Z,98.01
2019-04-05T00:25:40.475Z,97.55
2019-04-05T00:26:40.496Z,97.97
2019-04-05T00:27:40.519Z,97.66
2019-04-05T00:28:40.445Z,97.66
2019-04-05T00:29:40.424Z,97.86
2019-04-05T00:30:40.419Z,97.97
2019-04-05T00:31:40.405Z,98.18
2019-04-05T00:32:40.404Z,97.29
2019-04-05T00:33:40.405Z,97.91
2019-04-05T00:34:40.374Z,98.11
2019-04-05T00:35:40.359Z,97.81
2019-04-05T00:36:40.353Z,98.01
2019-04-05T00:37:40.342Z,97.91
2019-04-05T00:38:40.329Z,97.71
2019-04-05T00:39:40.319Z,98.01
2019-04-05T00:40:40.306Z,98.38
2019-04-05T00:41:40.294Z,97.81
2019-04-05T00:42:40.287Z,98.11
2019-04-05T00:43:40.275Z,97.91
2019-04-05T00:44:40.262Z,97.71
2019-04-05T00:45:40.254Z,98.22
2019-04-05T00:46:40.242Z,98.01
2019-04-05T00:47:40.228Z,98.68
2019-04-05T00:48:40.262Z,98.22
2019-04-05T00:49:40.213Z,97.91
2019-04-05T00:50:40.197Z,97.54
2019-04-05T00:51:40.187Z,98.43
2019-04-05T00:52:40.177Z,98.68
2019-04-05T00:53:40.178Z,98.53
2019-04-05T00:54:40.154Z,98.43
2019-04-05T00:55:40.141Z,98.32
2019-04-05T00:56:40.204Z,98.32
2019-04-05T00:57:40.122Z,98.78
2019-04-05T00:58:40.112Z,98.32
2019-04-05T00:59:40.102Z,98.22
2019-04-05T01:00:40.091Z,98.43
2019-04-05T01:01:40.077Z,98.74
2019-04-05T01:02:40.064Z,98.68
2019-04-05T01:03:40.061Z,98.84
2019-04-05T01:04:40.057Z,98.11
2019-04-05T01:05:40.039Z,98.49
2019-04-05T01:06:40.024Z,98.32
2019-04-05T01:07:40.010Z,98.28
2019-04-05T01:08:40.006Z,98.63
2019-04-05T01:09:39.990Z,98.94
2019-04-05T01:10:39.981Z,98.63
2019-04-05T01:11:39.968Z,98.74
2019-04-05T01:12:39.963Z,98.74
2019-04-05T01:13:39.947Z,98.53
2019-04-05T01:14:39.941Z,98.63
2019-04-05T01:15:41.115Z,98.74
2019-04-05T01:16:39.916Z,98.74
2019-04-05T01:17:39.902Z,98.63
2019-04-05T01:18:39.894Z,98.63
2019-04-05T01:19:39.881Z,98.79
2019-04-05T01:20:39.869Z,98.58
2019-04-05T01:21:39.864Z,98.90
2019-04-05T01:22:39.848Z,98.22
2019-04-05T01:23:39.844Z,98.74
2019-04-05T01:24:39.829Z,98.63
2019-04-05T01:25:39.818Z,98.84
2019-04-05T01:26:39.810Z,98.74
2019-04-05T01:27:39.797Z,98.74
2019-04-05T01:28:39.789Z,98.74
2019-04-05T01:29:39.772Z,98.74
2019-04-05T01:30:39.761Z,98.68
2019-04-05T01:31:39.759Z,98.88
2019-04-05T01:32:39.742Z,98.68
2019-04-05T01:33:39.729Z,98.37
2019-04-05T01:34:39.726Z,98.68
2019-04-05T01:35:39.708Z,98.68
2019-04-05T01:36:39.698Z,98.63
2019-04-05T01:37:39.684Z,98.47
2019-04-05T01:38:39.672Z,98.78
2019-04-05T01:39:39.664Z,98.57
2019-04-05T01:40:39.654Z,98.74
2019-04-05T01:41:39.640Z,98.68
2019-04-05T01:42:39.630Z,98.88
2019-04-05T01:43:39.654Z,98.57
2019-04-05T01:44:39.614Z,98.88
2019-04-05T01:45:39.596Z,98.78
2019-04-05T01:46:39.588Z,98.83
2019-04-05T01:47:39.579Z,98.83
2019-04-05T01:48:39.570Z,98.72
2019-04-05T01:49:39.555Z,98.83
2019-04-05T01:50:39.546Z,98.83
2019-04-05T01:51:39.536Z,98.52
2019-04-05T01:52:39.523Z,98.62
2019-04-05T01:53:39.512Z,98.72
2019-04-05T01:54:39.501Z,98.88
2019-04-05T01:55:39.493Z,98.83
2019-04-05T01:56:39.476Z,98.57
2019-04-05T01:57:39.470Z,98.83
2019-04-05T01:58:39.457Z,98.83
2019-04-05T01:59:39.449Z,98.52
2019-04-05T02:00:39.437Z,98.62
2019-04-05T02:01:39.427Z,98.93
2019-04-05T02:02:39.438Z,98.93
2019-04-05T02:03:39.405Z,98.72
2019-04-05T02:04:39.397Z,98.62
2019-04-05T02:05:39.387Z,98.72
2019-04-05T02:06:39.376Z,98.83
2019-04-05T02:07:39.363Z,98.83
2019-04-05T02:08:39.355Z,99.24
2019-04-05T02:09:39.337Z,98.78
2019-04-05T02:10:39.328Z,99.14
2019-04-05T02:11:39.319Z,98.27
2019-04-05T02:12:39.307Z,98.16
2019-04-05T02:13:39.294Z,98.06
2019-04-05T02:14:39.285Z,98.37
2019-04-05T02:15:39.274Z,98.63
2019-04-05T02:16:39.261Z,98.22
2019-04-05T02:17:39.251Z,98.47
2019-04-05T02:18:39.243Z,98.68
2019-04-05T02:19:39.229Z,98.16
2019-04-05T02:20:39.220Z,98.52
2019-04-05T02:21:39.206Z,98.88
2019-04-05T02:22:39.203Z,98.78
2019-04-05T02:23:39.186Z,98.88
2019-04-05T02:24:39.170Z,98.78
2019-04-05T02:25:39.166Z,98.47
2019-04-05T02:26:39.151Z,98.78
2019-04-05T02:27:39.140Z,98.78
2019-04-05T02:28:39.142Z,98.88
2019-04-05T02:29:39.123Z,98.47
2019-04-05T02:30:39.110Z,98.27
2019-04-05T02:31:39.123Z,98.78
2019-04-05T02:32:39.089Z,98.93
2019-04-05T02:33:39.076Z,98.93
2019-04-05T02:34:39.072Z,98.27
2019-04-05T02:35:39.297Z,98.62
2019-04-05T02:36:39.044Z,98.83
2019-04-05T02:37:39.040Z,98.52
2019-04-05T02:38:39.021Z,98.27
2019-04-05T02:39:39.013Z,98.16
2019-04-05T02:40:39.005Z,98.06
2019-04-05T02:41:39.020Z,98.57
2019-04-05T02:42:38.993Z,99.09
2019-04-05T02:43:38.971Z,98.47
2019-04-05T02:44:38.962Z,99.09
2019-04-05T02:45:38.953Z,98.37
2019-04-05T02:46:38.938Z,98.68
2019-04-05T02:47:38.926Z,98.88
2019-04-05T02:48:38.913Z,98.68
2019-04-05T02:49:38.907Z,98.78
2019-04-05T02:50:38.893Z,98.88
2019-04-05T02:51:38.886Z,98.57
2019-04-05T02:52:38.873Z,98.68
2019-04-05T02:53:38.858Z,98.41
2019-04-05T02:54:38.851Z,98.62
2019-04-05T02:55:38.837Z,99.34
2019-04-05T02:56:38.826Z,98.68
2019-04-05T02:57:38.814Z,99.14
2019-04-05T02:58:38.835Z,98.72
2019-04-05T02:59:38.788Z,98.10
2019-04-05T03:00:38.781Z,98.31
2019-04-05T03:01:38.767Z,98.52
2019-04-05T03:02:38.781Z,98.72
2019-04-05T03:03:38.821Z,98.72
2019-04-05T03:04:38.737Z,98.21
2019-04-05T03:05:38.745Z,98.62
2019-04-05T03:06:38.711Z,98.41
2019-04-05T03:07:38.793Z,98.21
2019-04-05T03:08:38.699Z,98.31
2019-04-05T03:09:38.683Z,98.41
2019-04-05T03:10:38.668Z,98.62
2019-04-05T03:11:38.660Z,97.89
2019-04-05T03:12:38.659Z,98.31
2019-04-05T03:13:38.649Z,98.41
2019-04-05T03:14:38.639Z,98.31
2019-04-05T03:15:38.628Z,98.41
2019-04-05T03:16:41.394Z,98.52
2019-04-05T03:17:38.599Z,98.83
2019-04-05T03:18:38.593Z,98.72
2019-04-05T03:19:38.582Z,98.83
2019-04-05T03:20:38.559Z,98.83
2019-04-05T03:21:38.550Z,98.31
2019-04-05T03:22:38.552Z,98.52
2019-04-05T03:23:38.533Z,98.93
2019-04-05T03:24:38.524Z,98.52
2019-04-05T03:25:38.506Z,98.83
2019-04-05T03:26:38.500Z,99.24
2019-04-05T03:27:38.486Z,98.62
2019-04-05T03:28:38.497Z,98.46
2019-04-05T03:29:38.463Z,98.93
2019-04-05T03:30:38.467Z,98.31
2019-04-05T03:31:38.441Z,98.52
2019-04-05T03:32:38.434Z,98.41
2019-04-05T03:33:38.417Z,98.41
2019-04-05T03:34:38.415Z,98.41
2019-04-05T03:35:38.407Z,98.31
2019-04-05T03:36:38.382Z,98.41
2019-04-05T03:37:38.380Z,98.41
2019-04-05T03:38:38.360Z,98.83
2019-04-05T03:39:38.352Z,98.31
2019-04-05T03:40:38.342Z,98.41
2019-04-05T03:41:38.330Z,98.10
2019-04-05T03:42:38.323Z,97.89
2019-04-05T03:43:38.316Z,98.00
2019-04-05T03:44:38.295Z,97.79
2019-04-05T03:45:38.287Z,97.89
2019-04-05T03:46:38.278Z,97.69
2019-04-05T03:47:38.267Z,97.69
2019-04-05T03:48:38.253Z,97.59
2019-04-05T03:49:38.242Z,97.28
2019-04-05T03:50:38.235Z,97.07
2019-04-05T03:51:38.222Z,97.38
2019-04-05T03:52:38.211Z,97.38
2019-04-05T03:53:38.253Z,97.38
2019-04-05T03:54:38.191Z,97.38
2019-04-05T03:55:38.181Z,97.07
2019-04-05T03:56:38.491Z,97.38
2019-04-05T03:57:38.155Z,97.85
2019-04-05T03:58:38.142Z,97.59
2019-04-05T03:59:38.126Z,97.69
2019-04-05T04:00:38.124Z,97.49
2019-04-05T04:01:38.119Z,97.44
2019-04-05T04:02:38.095Z,97.69
2019-04-05T04:03:38.085Z,97.75
2019-04-05T04:04:38.071Z,97.75
2019-04-05T04:05:38.065Z,97.64
2019-04-05T04:06:38.053Z,97.33
2019-04-05T04:07:38.047Z,97.44
2019-04-05T04:08:38.216Z,97.49
2019-04-05T04:09:38.049Z,96.61
2019-04-05T04:10:38.067Z,96.72
2019-04-05T04:11:37.997Z,96.92
2019-04-05T04:12:37.989Z,96.20
2019-04-05T04:13:37.983Z,96.20
2019-04-05T04:14:37.969Z,96.41
2019-04-05T04:15:37.970Z,95.27
2019-04-05T04:16:37.965Z,94.40
2019-04-05T04:17:37.934Z,93.57
2019-04-05T04:18:37.939Z,93.05
2019-04-05T04:19:37.917Z,94.09
2019-04-05T04:20:37.910Z,94.29
2019-04-05T04:21:37.885Z,93.57
2019-04-05T04:22:37.874Z,92.85
2019-04-05T04:23:37.875Z,92.79
2019-04-05T04:24:37.855Z,92.79
2019-04-05T04:25:37.843Z,93.37
2019-04-05T04:26:37.836Z,92.95
2019-04-05T04:27:37.821Z,93.16
2019-04-05T04:28:37.820Z,93.05
2019-04-05T04:29:37.802Z,93.47
2019-04-05T04:30:37.786Z,93.05
2019-04-05T04:31:37.780Z,92.74
2019-04-05T04:32:37.794Z,91.82
2019-04-05T04:33:37.753Z,91.82
2019-04-05T04:34:37.746Z,91.20
2019-04-05T04:35:37.734Z,90.33
2019-04-05T04:36:37.721Z,90.43
2019-04-05T04:37:37.710Z,91.05
2019-04-05T04:38:37.704Z,91.98
2019-04-05T04:39:37.690Z,92.54
2019-04-05T04:40:37.679Z,93.16
2019-04-05T04:41:37.674Z,93.88
2019-04-05T04:42:37.659Z,94.40
2019-04-05T04:43:37.646Z,94.19
2019-04-05T04:44:37.638Z,93.26
2019-04-05T04:45:37.630Z,92.02
2019-04-05T04:46:37.617Z,91.71
2019-04-05T04:47:37.606Z,91.30
2019-04-05T04:48:37.618Z,90.68
2019-04-05T04:49:37.584Z,89.92
2019-04-05T04:50:37.578Z,90.89
2019-04-05T04:51:37.559Z,91.71
2019-04-05T04:52:37.551Z,91.82
2019-04-05T04:53:37.537Z,89.92
2019-04-05T04:54:37.535Z,90.12
2019-04-05T04:55:37.516Z,90.02
2019-04-05T04:56:37.518Z,90.58
2019-04-05T04:57:37.497Z,90.99
2019-04-05T04:58:37.488Z,90.33
2019-04-05T04:59:37.485Z,90.84
2019-04-05T05:00:37.467Z,90.74
2019-04-05T05:01:37.452Z,89.61
2019-04-05T05:02:37.438Z,90.53
2019-04-05T05:03:37.427Z,91.16
2019-04-05T05:04:37.427Z,90.95
2019-04-05T05:05:37.410Z,91.88
2019-04-05T05:06:37.401Z,92.29
2019-04-05T05:07:37.393Z,92.95
2019-04-05T05:08:37.374Z,92.02
2019-04-05T05:09:37.379Z,93.53
2019-04-05T05:10:37.359Z,92.85
2019-04-05T05:11:37.354Z,93.37
2019-04-05T05:12:37.349Z,93.05
2019-04-05T05:13:37.356Z,92.64
2019-04-05T05:14:37.315Z,92.64
2019-04-05T05:15:37.306Z,92.85
2019-04-05T05:16:37.370Z,92.13
2019-04-05T05:17:38.636Z,92.64
2019-04-05T05:18:37.287Z,92.23
2019-04-05T05:19:37.271Z,92.74
2019-04-05T05:20:37.264Z,92.74
2019-04-05T05:21:37.391Z,93.16
2019-04-05T05:22:37.262Z,93.05
2019-04-05T05:23:37.256Z,93.57
2019-04-05T05:24:37.212Z,93.78
2019-04-05T05:25:37.207Z,93.16
2019-04-05T05:26:37.179Z,93.16
2019-04-05T05:27:37.187Z,93.12
2019-04-05T05:28:37.159Z,92.95
2019-04-05T05:29:37.149Z,93.37
2019-04-05T05:30:37.143Z,93.05
2019-04-05T05:31:37.143Z,93.26
2019-04-05T05:32:37.116Z,93.88
2019-04-05T05:33:37.109Z,94.29
2019-04-05T05:34:37.100Z,94.29
2019-04-05T05:35:37.080Z,94.29
2019-04-05T05:36:37.072Z,94.40
2019-04-05T05:37:37.066Z,92.91
2019-04-05T05:38:37.055Z,91.63
2019-04-05T05:39:37.038Z,89.32
2019-04-05T05:40:37.025Z,90.55
2019-04-05T05:41:37.017Z,90.35
2019-04-05T05:42:37.004Z,90.25
2019-04-05T05:43:37.008Z,89.83
2019-04-05T05:44:36.986Z,89.32
2019-04-05T05:45:36.978Z,88.96
2019-04-05T05:46:36.972Z,90.26
2019-04-05T05:47:36.944Z,89.58
2019-04-05T05:48:36.934Z,86.61
2019-04-05T05:49:36.928Z,84.17
2019-04-05T05:50:36.910Z,83.06
2019-04-05T05:51:36.899Z,83.64
2019-04-05T05:52:36.890Z,84.39
2019-04-05T05:53:36.875Z,83.46
2019-04-05T05:54:36.867Z,83.87
2019-04-05T05:55:36.858Z,83.56
2019-04-05T05:56:36.849Z,82.46
2019-04-05T05:57:36.836Z,81.13
2019-04-05T05:58:36.857Z,80.54
2019-04-05T05:59:36.827Z,78.38
2019-04-05T06:00:36.807Z,78.45
2019-04-05T06:01:36.794Z,75.34
2019-04-05T06:02:38.724Z,74.90
2019-04-05T06:03:36.776Z,73.98
2019-04-05T06:04:36.806Z,75.31
2019-04-05T06:05:36.750Z,74.35
2019-04-05T06:06:36.736Z,75.01
2019-04-05T06:07:36.760Z,76.78
2019-04-05T06:08:36.721Z,78.31
2019-04-05T06:09:36.703Z,79.72
2019-04-05T06:10:36.694Z,79.86
2019-04-05T06:11:36.679Z,80.47
2019-04-05T06:12:36.670Z,80.51
2019-04-05T06:13:37.057Z,80.96
2019-04-05T06:14:36.653Z,81.48
2019-04-05T06:15:37.599Z,82.65
2019-04-05T06:16:46.250Z,84.61
2019-04-05T06:17:37.613Z,85.26
2019-04-05T06:18:36.603Z,86.05
2019-04-05T06:19:36.590Z,85.22
2019-04-05T06:20:36.579Z,86.40
2019-04-05T06:21:36.580Z,85.12
2019-04-05T06:22:36.566Z,85.43
2019-04-05T06:23:36.557Z,84.30
2019-04-05T06:24:36.605Z,84.91
2019-04-05T06:25:36.543Z,85.08
2019-04-05T06:26:36.721Z,83.58
2019-04-05T06:27:36.570Z,83.72
2019-04-05T06:28:36.540Z,85.90
2019-04-05T06:29:36.485Z,82.41
2019-04-05T06:30:36.473Z,82.45
2019-04-05T06:31:36.561Z,83.17
2019-04-05T06:32:36.491Z,83.58
2019-04-05T06:33:36.479Z,84.20
2019-04-05T06:34:36.437Z,84.71
2019-04-05T06:35:36.418Z,84.20
2019-04-05T06:36:36.406Z,85.74
2019-04-05T06:37:36.425Z,85.12
2019-04-05T06:38:36.418Z,84.71
2019-04-05T06:39:36.374Z,85.53
2019-04-05T06:40:41.051Z,85.60
2019-04-05T06:41:36.573Z,85.02
2019-04-05T06:42:36.347Z,84.47
2019-04-05T06:43:36.564Z,84.94
2019-04-05T06:44:36.342Z,83.95
2019-04-05T06:45:36.501Z,84.88
2019-04-05T06:46:36.456Z,86.00
2019-04-05T06:47:36.587Z,85.18
2019-04-05T06:48:36.311Z,85.39
2019-04-05T06:49:36.541Z,85.60
2019-04-05T06:50:36.345Z,85.90
2019-04-05T06:51:36.294Z,84.98
2019-04-05T06:52:36.380Z,85.60
2019-04-05T06:53:36.226Z,86.62
2019-04-05T06:54:36.206Z,85.66
2019-04-05T06:55:36.426Z,83.95
2019-04-05T06:56:36.189Z,84.53
2019-04-05T06:57:36.182Z,84.59
2019-04-05T06:58:36.231Z,84.18
2019-04-05T06:59:36.163Z,82.50
2019-04-05T07:00:36.524Z,82.05
2019-04-05T07:01:36.173Z,80.27
2019-04-05T07:02:36.180Z,80.51
2019-04-05T07:03:36.176Z,79.64
2019-04-05T07:04:36.110Z,79.82
2019-04-05T07:05:36.157Z,80.33
2019-04-05T07:06:36.435Z,78.72
2019-04-05T07:07:36.071Z,79.48
2019-04-05T07:08:36.083Z,79.48
2019-04-05T07:09:36.040Z,80.13
2019-04-05T07:10:36.031Z,79.93
2019-04-05T07:11:36.022Z,80.30
2019-04-05T07:12:36.012Z,80.03
2019-04-05T07:13:36.000Z,81.52
2019-04-05T07:14:36.011Z,79.79
2019-04-05T07:15:36.011Z,80.40
2019-04-05T07:16:36.073Z,79.88
2019-04-05T07:17:35.959Z,76.97
2019-04-05T07:18:36.405Z,75.10
2019-04-05T07:19:35.928Z,74.73
2019-04-05T07:20:35.934Z,72.11
2019-04-05T07:21:36.053Z,71.06
2019-04-05T07:22:39.349Z,72.34
2019-04-05T07:23:35.889Z,67.71
2019-04-05T07:24:35.872Z,64.98
2019-04-05T07:25:35.867Z,64.67
2019-04-05T07:26:35.853Z,61.05
2019-04-05T07:27:35.839Z,65.81
2019-04-05T07:28:35.829Z,64.48
2019-04-05T07:29:35.818Z,70.24
2019-04-05T07:30:35.804Z,70.78
2019-04-05T07:31:35.876Z,69.83
2019-04-05T07:32:35.794Z,70.37
2019-04-05T07:33:35.771Z,72.11
2019-04-05T07:34:35.759Z,74.05
2019-04-05T07:35:35.750Z,71.63
2019-04-05T07:36:35.747Z,73.67
2019-04-05T07:37:35.731Z,73.16
2019-04-05T07:38:35.731Z,73.77
2019-04-05T07:39:35.709Z,75.20
2019-04-05T07:40:35.697Z,74.15
2019-04-05T07:41:35.682Z,74.18
2019-04-05T07:42:35.674Z,75.37
2019-04-05T07:43:35.667Z,75.54
2019-04-05T07:44:35.668Z,75.37
2019-04-05T07:45:35.637Z,70.95
2019-04-05T07:46:35.633Z,75.34
2019-04-05T07:47:35.614Z,74.73
2019-04-05T07:48:44.574Z,75.34
2019-04-05T07:49:36.609Z,74.02
2019-04-05T07:50:35.582Z,74.26
2019-04-05T07:51:35.606Z,75.24
2019-04-05T07:52:35.657Z,74.11
2019-04-05T07:53:35.592Z,74.73
2019-04-05T07:54:35.546Z,75.31
2019-04-05T07:55:35.537Z,74.63
2019-04-05T07:56:35.544Z,76.03
2019-04-05T07:57:35.509Z,74.73
2019-04-05T07:58:35.514Z,75.04
2019-04-05T07:59:35.485Z,74.80
2019-04-05T08:00:35.474Z,74.49
2019-04-05T08:01:35.478Z,75.31
2019-04-05T08:02:35.462Z,77.19
2019-04-05T08:03:35.445Z,75.59
2019-04-05T08:04:35.435Z,75.79
2019-04-05T08:05:35.413Z,78.11
2019-04-05T08:06:35.404Z,77.15
2019-04-05T08:07:35.394Z,74.80
2019-04-05T08:08:35.384Z,75.58
2019-04-05T08:09:35.371Z,75.58
2019-04-05T08:10:35.363Z,75.48
2019-04-05T08:11:35.348Z,75.27
2019-04-05T08:12:35.509Z,74.35
2019-04-05T08:13:35.326Z,74.66
2019-04-05T08:14:35.317Z,75.13
2019-04-05T08:15:35.305Z,74.66
2019-04-05T08:16:35.286Z,75.27
2019-04-05T08:17:35.277Z,74.46
2019-04-05T08:18:35.269Z,74.83
2019-04-05T08:19:35.252Z,71.56
2019-04-05T08:20:35.247Z,73.23
2019-04-05T08:21:35.235Z,72.92
2019-04-05T08:22:35.218Z,72.79
2019-04-05T08:23:35.220Z,72.14
2019-04-05T08:24:35.204Z,72.55
2019-04-05T08:25:35.191Z,72.28
2019-04-05T08:26:35.173Z,70.92
2019-04-05T08:27:35.182Z,71.64
2019-04-05T08:28:35.165Z,70.55
2019-04-05T08:29:35.143Z,70.92
2019-04-05T08:30:35.144Z,68.76
2019-04-05T08:31:35.130Z,70.08
2019-04-05T08:32:35.117Z,65.44
2019-04-05T08:33:36.512Z,69.20
2019-04-05T08:34:35.130Z,69.13
2019-04-05T08:35:35.079Z,68.18
2019-04-05T08:36:35.070Z,69.02
2019-04-05T08:37:35.051Z,69.16
2019-04-05T08:38:35.051Z,70.18
2019-04-05T08:39:35.033Z,70.04
2019-04-05T08:40:35.026Z,68.08
2019-04-05T08:41:35.055Z,66.12
2019-04-05T08:42:34.999Z,67.10
2019-04-05T08:43:34.993Z,66.46
2019-04-05T08:44:34.980Z,65.48
2019-04-05T08:45:34.969Z,66.86
2019-04-05T08:46:34.978Z,65.00
2019-04-05T08:47:34.948Z,65.28
2019-04-05T08:48:34.931Z,68.41
2019-04-05T08:49:34.923Z,68.58
2019-04-05T08:50:34.910Z,67.13
2019-04-05T08:51:34.900Z,69.36
2019-04-05T08:52:34.890Z,68.96
2019-04-05T08:53:34.897Z,68.75
2019-04-05T08:54:36.738Z,68.82
2019-04-05T08:55:34.854Z,69.32
2019-04-05T08:56:34.845Z,69.12
2019-04-05T08:57:34.838Z,71.19
2019-04-05T08:58:34.822Z,69.49
2019-04-05T08:59:34.815Z,70.78
2019-04-05T09:00:34.805Z,68.92
2019-04-05T09:01:34.795Z,67.77
2019-04-05T09:02:34.813Z,67.60
2019-04-05T09:03:34.766Z,65.54
2019-04-05T09:04:34.766Z,66.15
2019-04-05T09:05:34.745Z,66.55
2019-04-05T09:06:34.733Z,63.24
2019-04-05T09:07:34.725Z,66.23
2019-04-05T09:08:34.718Z,64.07
2019-04-05T09:09:34.703Z,64.85
2019-04-05T09:10:34.693Z,63.73
2019-04-05T09:11:34.679Z,62.07
2019-04-05T09:12:34.673Z,65.78
2019-04-05T09:13:34.664Z,66.52
2019-04-05T09:14:34.649Z,66.29
2019-04-05T09:15:34.643Z,68.22
2019-04-05T09:16:34.626Z,66.16
2019-04-05T09:17:34.614Z,64.56
2019-04-05T09:18:34.607Z,66.22
2019-04-05T09:19:34.594Z,67.03
2019-04-05T09:20:34.580Z,65.36
2019-04-05T09:21:34.572Z,69.26
2019-04-05T09:22:34.561Z,67.49
2019-04-05T09:23:34.547Z,72.17
2019-04-05T09:24:34.551Z,71.94
2019-04-05T09:25:34.527Z,69.60
2019-04-05T09:26:34.521Z,70.41
2019-04-05T09:27:34.508Z,70.68
2019-04-05T09:28:34.497Z,68.55
2019-04-05T09:29:34.489Z,68.75
2019-04-05T09:30:34.473Z,68.85
2019-04-05T09:31:34.465Z,67.22
2019-04-05T09:32:36.569Z,68.07
2019-04-05T09:33:34.442Z,67.38
2019-04-05T09:34:34.430Z,72.17
2019-04-05T09:35:34.419Z,73.43
2019-04-05T09:36:34.407Z,68.71
2019-04-05T09:37:34.400Z,71.29
2019-04-05T09:38:34.406Z,72.34
2019-04-05T09:39:35.013Z,68.62
2019-04-05T09:40:34.364Z,67.36
2019-04-05T09:41:35.017Z,67.46
2019-04-05T09:42:36.034Z,68.58
2019-04-05T09:43:34.337Z,68.85
2019-04-05T09:44:34.334Z,70.35
2019-04-05T09:45:34.309Z,66.79
2019-04-05T09:46:45.923Z,66.66
2019-04-05T09:47:35.284Z,65.26
2019-04-05T09:48:34.282Z,66.15
2019-04-05T09:49:37.132Z,65.00
2019-04-05T09:50:34.257Z,62.29
2019-04-05T09:51:34.243Z,64.51
2019-04-05T09:52:34.242Z,65.50
2019-04-05T09:53:34.223Z,65.81
2019-04-05T09:54:34.215Z,65.14
2019-04-05T09:55:34.204Z,64.98
2019-04-05T09:56:34.227Z,61.71
2019-04-05T09:57:34.246Z,61.07
2019-04-05T09:58:34.179Z,61.07
2019-04-05T09:59:34.181Z,61.88
2019-04-05T10:00:34.156Z,59.83
2019-04-05T10:01:34.148Z,59.58
2019-04-05T10:02:34.128Z,59.58
2019-04-05T10:03:34.113Z,59.30
2019-04-05T10:04:34.110Z,62.27
2019-04-05T10:05:34.115Z,61.43
2019-04-05T10:06:34.103Z,61.52
2019-04-05T10:07:34.078Z,64.64
2019-04-05T10:08:34.254Z,61.91
2019-04-05T10:09:34.098Z,61.17
2019-04-05T10:10:34.074Z,61.65
2019-04-05T10:11:34.022Z,60.14
2019-04-05T10:12:34.012Z,57.42
2019-04-05T10:13:34.042Z,58.92
2019-04-05T10:14:33.990Z,59.06
2019-04-05T10:15:33.992Z,57.89
2019-04-05T10:16:33.986Z,55.62
2019-04-05T10:17:33.983Z,55.14
2019-04-05T10:18:33.959Z,59.00
2019-04-05T10:19:33.936Z,55.65
2019-04-05T10:20:33.939Z,56.63
2019-04-05T10:21:33.920Z,57.96
2019-04-05T10:22:33.937Z,54.05
2019-04-05T10:23:33.909Z,55.44
2019-04-05T10:24:33.900Z,54.68
2019-04-05T10:25:33.871Z,52.51
2019-04-05T10:26:33.865Z,53.34
2019-04-05T10:27:33.865Z,54.25
2019-04-05T10:28:33.850Z,52.84
2019-04-05T10:29:33.833Z,54.89
2019-04-05T10:30:33.814Z,54.89
2019-04-05T10:31:33.824Z,54.21
2019-04-05T10:32:33.818Z,58.27
2019-04-05T10:33:33.787Z,56.23
2019-04-05T10:34:33.782Z,56.48
2019-04-05T10:35:33.757Z,53.67
2019-04-05T10:36:33.766Z,54.43
2019-04-05T10:37:33.773Z,53.80
2019-04-05T10:38:33.735Z,56.16
2019-04-05T10:39:33.724Z,52.89
2019-04-05T10:40:33.714Z,50.38
2019-04-05T10:41:33.694Z,52.77
2019-04-05T10:42:33.695Z,52.55
2019-04-05T10:43:33.678Z,48.99
2019-04-05T10:44:33.666Z,50.85
2019-04-05T10:45:33.668Z,51.73
2019-04-05T10:46:33.640Z,50.33
2019-04-05T10:47:33.636Z,50.25
2019-04-05T10:48:35.395Z,52.80
2019-04-05T10:49:33.616Z,53.00
2019-04-05T10:50:33.598Z,52.49
2019-04-05T10:51:33.585Z,54.21
2019-04-05T10:52:33.573Z,52.89
2019-04-05T10:53:33.570Z,52.26
2019-04-05T10:54:33.550Z,55.29
2019-04-05T10:55:33.544Z,54.91
2019-04-05T10:56:33.536Z,56.23
2019-04-05T10:57:33.558Z,57.67
2019-04-05T10:58:33.583Z,55.82
2019-04-05T10:59:33.506Z,55.21
2019-04-05T11:00:33.488Z,56.43
2019-04-05T11:01:33.478Z,53.17
2019-04-05T11:02:33.467Z,52.74
2019-04-05T11:03:33.466Z,54.66
2019-04-05T11:04:33.442Z,54.43
2019-04-05T11:05:33.435Z,55.57
2019-04-05T11:06:33.424Z,54.58
2019-04-05T11:07:35.015Z,53.70
2019-04-05T11:08:33.406Z,50.61
2019-04-05T11:09:33.394Z,49.18
2019-04-05T11:10:33.377Z,48.08
2019-04-05T11:11:33.377Z,49.51
2019-04-05T11:12:33.373Z,49.76
2019-04-05T11:13:33.435Z,47.67
2019-04-05T11:14:33.335Z,47.64
2019-04-05T11:15:33.322Z,48.58
2019-04-05T11:16:33.319Z,47.15
2019-04-05T11:17:33.314Z,50.86
2019-04-05T11:18:33.525Z,49.41
2019-04-05T11:19:36.213Z,47.06
2019-04-05T11:20:33.271Z,47.23
2019-04-05T11:21:33.288Z,48.25
2019-04-05T11:22:33.255Z,47.45
2019-04-05T11:23:33.254Z,48.13
2019-04-05T11:24:33.241Z,46.15
2019-04-05T11:25:33.229Z,47.82
2019-04-05T11:26:33.250Z,49.40
2019-04-05T11:27:33.212Z,51.97
2019-04-05T11:28:33.198Z,52.04
2019-04-05T11:29:33.359Z,52.24
2019-04-05T11:30:33.173Z,50.60
2019-04-05T11:31:33.159Z,52.56
2019-04-05T11:32:33.143Z,56.02
2019-04-05T11:33:33.173Z,55.19
2019-04-05T11:34:33.125Z,54.53
2019-04-05T11:35:33.117Z,54.08
2019-04-05T11:36:33.109Z,52.74
2019-04-05T11:37:33.153Z,52.24
2019-04-05T11:38:33.084Z,53.02
2019-04-05T11:39:33.159Z,52.51
2019-04-05T11:40:33.063Z,52.39
2019-04-05T11:41:33.049Z,52.62
2019-04-05T11:42:33.553Z,50.51
2019-04-05T11:43:33.264Z,52.84
2019-04-05T11:44:33.020Z,49.90
2019-04-05T11:45:33.011Z,52.11
2019-04-05T11:46:33.010Z,53.30
2019-04-05T11:47:32.995Z,52.57
2019-04-05T11:48:32.981Z,50.57
2019-04-05T11:49:32.969Z,50.68
2019-04-05T11:50:34.765Z,52.26
2019-04-05T11:51:32.978Z,50.71
2019-04-05T11:52:32.930Z,49.70
2019-04-05T11:53:32.932Z,48.32
2019-04-05T11:54:32.907Z,47.72
2019-04-05T11:55:32.895Z,47.30
2019-04-05T11:56:32.925Z,48.18
2019-04-05T11:57:32.907Z,47.44
2019-04-05T11:58:33.010Z,49.48
2019-04-05T11:59:32.868Z,48.83
2019-04-05T12:00:32.851Z,49.51
2019-04-05T12:01:32.853Z,47.50
2019-04-05T12:02:32.831Z,47.38
2019-04-05T12:03:32.943Z,45.95
2019-04-05T12:04:32.955Z,47.43
2019-04-05T12:05:33.261Z,46.83
2019-04-05T12:06:35.176Z,46.83
2019-04-05T12:07:32.985Z,46.97
2019-04-05T12:08:32.762Z,50.89
2019-04-05T12:09:32.816Z,50.68
2019-04-05T12:10:32.744Z,52.92
2019-04-05T12:11:33.473Z,52.39
2019-04-05T12:12:32.718Z,52.01
2019-04-05T12:13:32.747Z,50.90
2019-04-05T12:14:34.488Z,52.89
2019-04-05T12:15:33.511Z,54.50
2019-04-05T12:16:36.025Z,53.32
2019-04-05T12:17:35.051Z,53.55
2019-04-05T12:18:34.776Z,54.00
2019-04-05T12:19:33.565Z,57.34
2019-04-05T12:20:33.345Z,54.46
2019-04-05T12:21:34.852Z,57.95
2019-04-05T12:22:35.001Z,59.90
2019-04-05T12:23:33.492Z,58.41
2019-04-05T12:24:33.269Z,59.88
2019-04-05T12:25:33.764Z,62.07
2019-04-05T12:26:34.537Z,63.34
2019-04-05T12:27:32.565Z,63.65
2019-04-05T12:28:32.544Z,63.88
2019-04-05T12:29:32.551Z,64.83
2019-04-05T12:30:32.552Z,65.88
2019-04-05T12:31:32.575Z,67.83
2019-04-05T12:32:36.080Z,67.13
2019-04-05T12:33:33.533Z,68.35
2019-04-05T12:34:32.494Z,68.44
2019-04-05T12:35:32.516Z,68.07
2019-04-05T12:36:32.507Z,68.38
2019-04-05T12:37:32.461Z,68.88
2019-04-05T12:38:33.017Z,68.07
2019-04-05T12:39:32.450Z,68.92
2019-04-05T12:40:32.409Z,69.63
2019-04-05T12:41:32.404Z,69.36
2019-04-05T12:42:32.402Z,70.45
2019-04-05T12:43:32.387Z,70.78
2019-04-05T12:44:32.417Z,70.41
2019-04-05T12:45:32.363Z,70.31
2019-04-05T12:46:32.366Z,70.51
2019-04-05T12:47:33.981Z,70.44
2019-04-05T12:48:32.350Z,70.21
2019-04-05T12:49:32.317Z,71.06
2019-04-05T12:50:32.301Z,72.28
2019-04-05T12:51:32.301Z,72.17
2019-04-05T12:52:32.762Z,72.08